createdAt,value
2023-04-10T00:01:44.484Z,3.90
2023-04-10T00:04:11.117Z,5.28
2023-04-10T00:06:37.628Z,4.80
2023-04-10T00:09:03.944Z,4.25
2023-04-10T00:11:30.378Z,4.68
2023-04-10T00:13:56.834Z,7.15
2023-04-10T00:16:23.246Z,6.38
2023-04-10T00:18:49.644Z,5.30
2023-04-10T00:21:16.039Z,7.60
2023-04-10T00:23:42.375Z,5.03
2023-04-10T00:26:08.957Z,4.18
2023-04-10T00:28:38.055Z,6.13
2023-04-10T00:31:05.001Z,5.88
2023-04-10T00:33:31.382Z,6.20
2023-04-10T00:35:57.859Z,4.43
2023-04-10T00:38:24.411Z,5.35
2023-04-10T00:40:50.885Z,5.75
2023-04-10T00:43:19.226Z,7.22
2023-04-10T00:45:46.071Z,3.30
2023-04-10T00:48:12.604Z,4.07
2023-04-10T00:50:39.281Z,4.70
2023-04-10T00:53:05.909Z,7.03
2023-04-10T00:55:32.354Z,3.80
2023-04-10T00:57:58.801Z,4.88
2023-04-10T01:00:25.226Z,5.60
2023-04-10T01:02:51.815Z,5.13
2023-04-10T01:05:18.338Z,5.07
2023-04-10T01:08:11.260Z,5.63
2023-04-10T01:10:48.884Z,5.97
2023-04-10T01:13:16.836Z,4.78
2023-04-10T01:15:48.897Z,4.82
2023-04-10T01:18:47.572Z,6.10
2023-04-10T01:21:15.088Z,6.28
2023-04-10T01:23:50.515Z,6.15
2023-04-10T01:26:23.112Z,6.68
2023-04-10T01:28:53.769Z,5.75
2023-04-10T01:31:28.946Z,5.00
2023-04-10T01:33:58.795Z,5.05
2023-04-10T01:36:28.009Z,4.70
2023-04-10T01:38:56.678Z,5.97
2023-04-10T01:41:24.018Z,5.97
2023-04-10T01:43:52.042Z,5.78
2023-04-10T01:46:19.471Z,5.20
2023-04-10T01:48:46.560Z,5.63
2023-04-10T01:51:13.674Z,4.32
2023-04-10T01:53:40.813Z,4.97
2023-04-10T01:56:10.279Z,7.15
2023-04-10T01:58:36.755Z,6.32
2023-04-10T02:01:03.261Z,6.68
2023-04-10T02:03:29.750Z,5.82
2023-04-10T02:05:56.238Z,4.95
2023-04-10T02:08:31.289Z,6.25
2023-04-10T02:11:17.893Z,4.97
2023-04-10T02:13:44.408Z,6.70
2023-04-10T02:16:14.453Z,5.95
2023-04-10T02:18:41.065Z,6.93
2023-04-10T02:21:07.969Z,6.28
2023-04-10T02:23:35.275Z,6.10
2023-04-10T02:26:06.374Z,7.07
2023-04-10T02:28:32.684Z,6.78
2023-04-10T02:30:59.010Z,6.30
2023-04-10T02:33:25.359Z,7.05
2023-04-10T02:35:51.726Z,6.05
2023-04-10T02:38:18.053Z,7.50
2023-04-10T02:40:44.519Z,6.75
2023-04-10T02:43:10.901Z,6.10
2023-04-10T02:45:37.212Z,5.03
2023-04-10T02:48:05.547Z,6.32
2023-04-10T02:50:32.377Z,6.60
2023-04-10T02:52:58.770Z,5.38
2023-04-10T02:55:25.235Z,6.38
2023-04-10T02:57:51.831Z,6.10
2023-04-10T03:00:19.394Z,8.07
2023-04-10T03:02:46.194Z,7.22
2023-04-10T03:05:12.816Z,7.25
2023-04-10T03:07:39.187Z,7.35
2023-04-10T03:10:05.837Z,6.28
2023-04-10T03:12:32.157Z,6.25
2023-04-10T03:14:58.658Z,7.38
2023-04-10T03:17:25.013Z,6.80
2023-04-10T03:19:51.762Z,5.40
2023-04-10T03:22:18.077Z,5.72
2023-04-10T03:24:44.591Z,7.32
2023-04-10T03:27:11.118Z,6.93
2023-04-10T03:29:37.440Z,5.60
2023-04-10T03:32:03.842Z,6.05
2023-04-10T03:34:30.310Z,5.22
2023-04-10T03:36:56.753Z,5.97
2023-04-10T03:39:23.800Z,5.55
2023-04-10T03:41:50.292Z,5.43
2023-04-10T03:44:17.039Z,5.93
2023-04-10T03:46:43.401Z,5.60
2023-04-10T03:49:09.821Z,5.22
2023-04-10T03:51:36.154Z,4.43
2023-04-10T03:54:02.463Z,6.07
2023-04-10T03:56:28.820Z,5.30
2023-04-10T03:58:55.294Z,4.97
2023-04-10T04:01:22.154Z,5.68
2023-04-10T04:03:48.639Z,6.03
2023-04-10T04:06:15.243Z,5.00
2023-04-10T04:08:41.607Z,4.45
2023-04-10T04:11:07.951Z,5.18
2023-04-10T04:13:34.265Z,4.70
2023-04-10T04:16:00.875Z,5.07
2023-04-10T04:18:27.213Z,4.18
2023-04-10T04:20:53.567Z,4.60
2023-04-10T04:23:19.993Z,3.35
2023-04-10T04:25:46.354Z,4.60
2023-04-10T04:28:13.716Z,4.97
2023-04-10T04:30:40.320Z,4.82
2023-04-10T04:33:06.763Z,4.47
2023-04-10T04:35:33.190Z,5.07
2023-04-10T04:37:59.608Z,4.40
2023-04-10T04:40:25.926Z,4.72
2023-04-10T04:42:52.345Z,5.47
2023-04-10T04:45:18.668Z,4.00
2023-04-10T04:47:45.107Z,4.95
2023-04-10T04:50:11.550Z,4.55
2023-04-10T04:52:37.944Z,5.28
2023-04-10T04:55:04.544Z,4.32
2023-04-10T04:57:30.889Z,4.97
2023-04-10T04:59:57.207Z,5.10
2023-04-10T05:02:23.645Z,4.30
2023-04-10T05:04:50.306Z,4.95
2023-04-10T05:07:16.721Z,5.35
2023-04-10T05:09:43.146Z,4.65
2023-04-10T05:12:09.453Z,5.47
2023-04-10T05:14:35.840Z,4.70
2023-04-10T05:17:03.706Z,4.80
2023-04-10T05:19:30.200Z,4.57
2023-04-10T05:21:56.698Z,4.60
2023-04-10T05:24:23.099Z,4.78
2023-04-10T05:26:49.400Z,4.32
2023-04-10T05:29:15.917Z,4.30
2023-04-10T05:31:42.349Z,4.32
2023-04-10T05:34:08.662Z,4.70
2023-04-10T05:36:35.277Z,4.85
2023-04-10T05:39:01.653Z,4.38
2023-04-10T05:41:28.012Z,4.07
2023-04-10T05:43:54.461Z,4.70
2023-04-10T05:46:20.916Z,3.67
2023-04-10T05:48:47.422Z,4.28
2023-04-10T05:51:13.778Z,4.93
2023-04-10T05:53:40.290Z,3.95
2023-04-10T05:56:06.933Z,4.03
2023-04-10T05:58:33.361Z,4.38
2023-04-10T06:00:59.812Z,4.28
2023-04-10T06:03:27.665Z,3.72
2023-04-10T06:05:54.399Z,3.45
2023-04-10T06:08:20.753Z,4.20
2023-04-10T06:10:47.089Z,3.58
2023-04-10T06:13:14.928Z,3.90
2023-04-10T06:15:41.481Z,2.22
2023-04-10T06:18:07.821Z,3.70
2023-04-10T06:20:34.200Z,4.07
2023-04-10T06:23:00.651Z,2.92
2023-04-10T06:25:27.444Z,3.78
2023-04-10T06:27:53.955Z,4.70
2023-04-10T06:30:20.334Z,3.47
2023-04-10T06:32:46.745Z,4.43
2023-04-10T06:35:13.163Z,4.85
2023-04-10T06:37:39.636Z,4.75
2023-04-10T06:40:15.673Z,4.53
2023-04-10T06:42:42.326Z,4.63
2023-04-10T06:45:09.123Z,4.53
2023-04-10T06:47:35.535Z,3.83
2023-04-10T06:50:01.917Z,4.88
2023-04-10T06:52:28.468Z,4.30
2023-04-10T06:54:54.863Z,4.70
2023-04-10T06:57:21.267Z,4.72
2023-04-10T06:59:47.738Z,4.18
2023-04-10T07:02:14.169Z,4.35
2023-04-10T07:04:40.514Z,4.75
2023-04-10T07:07:10.059Z,4.05
2023-04-10T07:09:36.453Z,4.03
2023-04-10T07:12:03.038Z,4.63
2023-04-10T07:14:29.455Z,3.58
2023-04-10T07:16:55.947Z,3.95
2023-04-10T07:19:22.391Z,4.20
2023-04-10T07:21:50.215Z,4.70
2023-04-10T07:24:17.557Z,4.35
2023-04-10T07:26:44.265Z,4.20
2023-04-10T07:29:10.826Z,4.05
2023-04-10T07:31:37.322Z,3.17
2023-04-10T07:34:03.899Z,4.50
2023-04-10T07:36:30.288Z,3.85
2023-04-10T07:38:56.784Z,4.63
2023-04-10T07:41:24.060Z,4.63
2023-04-10T07:43:50.510Z,4.47
2023-04-10T07:46:17.385Z,4.43
2023-04-10T07:48:44.563Z,4.70
2023-04-10T07:51:11.017Z,4.63
2023-04-10T07:53:37.442Z,4.25
2023-04-10T07:56:04.388Z,4.70
2023-04-10T07:58:31.915Z,4.38
2023-04-10T08:00:58.804Z,4.75
2023-04-10T08:03:26.139Z,4.70
2023-04-10T08:05:53.021Z,4.93
2023-04-10T08:08:19.472Z,5.10
2023-04-10T08:10:45.845Z,4.28
2023-04-10T08:13:12.594Z,4.70
2023-04-10T08:15:38.951Z,4.70
2023-04-10T08:18:05.460Z,4.88
2023-04-10T08:20:37.085Z,4.95
2023-04-10T08:23:19.215Z,4.78
2023-04-10T08:25:47.127Z,4.38
2023-04-10T08:28:13.528Z,4.68
2023-04-10T08:30:39.990Z,4.68
2023-04-10T08:33:06.405Z,4.65
2023-04-10T08:35:32.837Z,4.93
2023-04-10T08:38:12.417Z,4.90
2023-04-10T08:40:40.864Z,4.72
2023-04-10T08:43:07.280Z,5.45
2023-04-10T08:45:33.748Z,5.13
2023-04-10T08:48:02.672Z,4.43
2023-04-10T08:50:31.212Z,4.70
2023-04-10T08:52:59.774Z,4.20
2023-04-10T08:55:26.607Z,4.88
2023-04-10T08:58:00.467Z,4.57
2023-04-10T09:00:28.571Z,4.85
2023-04-10T09:02:58.130Z,4.63
2023-04-10T09:05:26.840Z,4.93
2023-04-10T09:07:53.167Z,4.97
2023-04-10T09:10:19.547Z,5.05
2023-04-10T09:12:46.565Z,4.50
2023-04-10T09:15:13.945Z,4.80
2023-04-10T09:17:59.363Z,4.70
2023-04-10T09:20:26.829Z,4.22
2023-04-10T09:22:53.391Z,4.55
2023-04-10T09:25:28.907Z,5.03
2023-04-10T09:28:02.498Z,5.10
2023-04-10T09:30:41.909Z,4.40
2023-04-10T09:33:27.938Z,5.20
2023-04-10T09:35:56.009Z,5.05
2023-04-10T09:38:22.605Z,5.20
2023-04-10T09:40:49.284Z,4.43
2023-04-10T09:43:18.862Z,5.50
2023-04-10T09:45:49.401Z,5.50
2023-04-10T09:48:16.313Z,4.60
2023-04-10T09:50:42.714Z,5.85
2023-04-10T09:53:10.048Z,8.20
2023-04-10T09:55:36.994Z,8.32
2023-04-10T09:58:04.059Z,7.85
2023-04-10T10:00:30.595Z,9.13
2023-04-10T10:02:59.381Z,9.00
2023-04-10T10:05:30.465Z,8.43
2023-04-10T10:07:57.350Z,9.60
2023-04-10T10:10:24.685Z,7.65
2023-04-10T10:12:54.689Z,8.57
2023-04-10T10:15:31.359Z,9.00
2023-04-10T10:18:04.002Z,9.80
2023-04-10T10:20:31.768Z,9.35
2023-04-10T10:22:59.040Z,8.07
2023-04-10T10:25:26.337Z,7.47
2023-04-10T10:27:53.668Z,8.02
2023-04-10T10:30:29.612Z,8.48
2023-04-10T10:32:58.270Z,7.80
2023-04-10T10:35:28.722Z,8.23
2023-04-10T10:37:56.440Z,7.18
2023-04-10T10:40:33.642Z,7.63
2023-04-10T10:43:13.560Z,6.88
2023-04-10T10:45:58.075Z,5.43
2023-04-10T10:48:24.446Z,5.38
2023-04-10T10:50:58.993Z,5.40
2023-04-10T10:53:38.021Z,6.07
2023-04-10T10:56:19.501Z,5.15
2023-04-10T10:58:49.484Z,4.22
2023-04-10T11:01:16.735Z,4.43
2023-04-10T11:03:46.314Z,4.22
2023-04-10T11:06:14.694Z,4.38
2023-04-10T11:08:46.592Z,4.32
2023-04-10T11:11:27.512Z,4.25
2023-04-10T11:13:56.678Z,3.92
2023-04-10T11:16:24.601Z,4.20
2023-04-10T11:18:59.316Z,4.35
2023-04-10T11:21:37.286Z,3.80
2023-04-10T11:24:04.544Z,4.30
2023-04-10T11:26:42.736Z,3.60
2023-04-10T11:29:18.085Z,4.65
2023-04-10T11:31:45.541Z,4.20
2023-04-10T11:34:12.056Z,4.75
2023-04-10T11:36:39.182Z,3.60
2023-04-10T11:39:08.409Z,4.53
2023-04-10T11:41:36.678Z,4.20
2023-04-10T11:44:07.951Z,3.88
2023-04-10T11:46:41.411Z,3.97
2023-04-10T11:49:09.728Z,3.58
2023-04-10T11:51:40.012Z,4.18
2023-04-10T11:54:14.132Z,4.22
2023-04-10T11:56:44.483Z,3.50
2023-04-10T11:59:13.228Z,3.50
2023-04-10T12:01:43.230Z,3.63
2023-04-10T12:04:20.137Z,3.65
2023-04-10T12:06:50.820Z,3.85
2023-04-10T12:09:17.938Z,4.10
2023-04-10T12:11:51.469Z,3.28
2023-04-10T12:14:18.048Z,2.92
2023-04-10T12:16:45.046Z,3.70
2023-04-10T12:19:11.702Z,3.55
2023-04-10T12:21:38.489Z,3.78
2023-04-10T12:24:05.335Z,4.05
2023-04-10T12:26:31.691Z,4.13
2023-04-10T12:28:58.675Z,3.72
2023-04-10T12:31:28.375Z,4.38
2023-04-10T12:33:58.051Z,3.35
2023-04-10T12:36:26.999Z,3.83
2023-04-10T12:38:53.742Z,3.78
2023-04-10T12:41:24.550Z,3.95
2023-04-10T12:43:51.899Z,4.03
2023-04-10T12:46:28.067Z,4.28
2023-04-10T12:49:08.382Z,3.85
2023-04-10T12:51:50.981Z,4.45
2023-04-10T12:54:27.056Z,3.83
2023-04-10T12:56:54.548Z,3.85
2023-04-10T12:59:21.336Z,3.75
2023-04-10T13:01:48.920Z,4.22
2023-04-10T13:04:15.683Z,4.40
2023-04-10T13:06:45.852Z,4.32
2023-04-10T13:09:12.650Z,4.60
2023-04-10T13:11:39.173Z,4.50
2023-04-10T13:14:05.724Z,4.15
2023-04-10T13:16:32.071Z,3.78
2023-04-10T13:18:58.444Z,4.47
2023-04-10T13:21:26.849Z,4.50
2023-04-10T13:23:53.310Z,4.25
2023-04-10T13:26:19.756Z,4.18
2023-04-10T13:28:46.595Z,4.03
2023-04-10T13:31:15.777Z,4.13
2023-04-10T13:33:51.144Z,4.57
2023-04-10T13:36:17.650Z,4.55
2023-04-10T13:38:44.290Z,4.20
2023-04-10T13:41:11.816Z,3.03
2023-04-10T13:43:38.180Z,4.85
2023-04-10T13:46:05.780Z,4.47
2023-04-10T13:48:39.963Z,4.35
2023-04-10T13:51:07.473Z,4.60
2023-04-10T13:53:33.844Z,4.43
2023-04-10T13:56:00.412Z,3.85
2023-04-10T13:58:31.728Z,4.32
2023-04-10T14:00:58.464Z,2.63
2023-04-10T14:03:24.954Z,3.72
2023-04-10T14:05:52.697Z,2.95
2023-04-10T14:08:19.471Z,3.50
2023-04-10T14:10:46.896Z,3.67
2023-04-10T14:13:13.261Z,3.13
2023-04-10T14:15:39.574Z,2.92
2023-04-10T14:18:06.112Z,3.15
2023-04-10T14:20:32.498Z,4.10
2023-04-10T14:22:58.803Z,2.88
2023-04-10T14:25:25.144Z,3.47
2023-04-10T14:27:51.518Z,3.25
2023-04-10T14:30:17.943Z,3.65
2023-04-10T14:32:44.426Z,3.97
2023-04-10T14:35:11.328Z,3.33
2023-04-10T14:37:37.858Z,3.35
2023-04-10T14:40:07.251Z,3.53
2023-04-10T14:42:33.644Z,3.30
2023-04-10T14:45:00.047Z,3.38
2023-04-10T14:47:26.576Z,3.17
2023-04-10T14:49:52.880Z,3.20
2023-04-10T14:52:19.250Z,3.25
2023-04-10T14:54:45.615Z,3.30
2023-04-10T14:57:13.069Z,4.20
2023-04-10T14:59:39.385Z,3.72
2023-04-10T15:02:05.752Z,4.22
2023-04-10T15:04:32.443Z,4.30
2023-04-10T15:06:58.952Z,3.75
2023-04-10T15:09:25.383Z,3.95
2023-04-10T15:11:51.758Z,4.13
2023-04-10T15:14:18.148Z,3.97
2023-04-10T15:16:44.487Z,4.18
2023-04-10T15:19:10.949Z,4.28
2023-04-10T15:21:37.429Z,4.95
2023-04-10T15:24:03.785Z,4.78
2023-04-10T15:26:30.194Z,4.82
2023-04-10T15:28:56.523Z,3.92
2023-04-10T15:31:23.849Z,4.03
2023-04-10T15:33:51.835Z,4.00
2023-04-10T15:36:18.335Z,4.07
2023-04-10T15:38:44.754Z,4.40
2023-04-10T15:41:11.736Z,4.60
2023-04-10T15:43:38.242Z,4.03
2023-04-10T15:46:05.017Z,3.83
2023-04-10T15:48:31.546Z,4.35
2023-04-10T15:50:58.477Z,3.70
2023-04-10T15:53:24.906Z,3.80
2023-04-10T15:55:51.324Z,3.50
2023-04-10T15:58:17.707Z,3.25
2023-04-10T16:00:44.068Z,2.72
2023-04-10T16:03:10.528Z,3.00
2023-04-10T16:05:36.967Z,3.08
2023-04-10T16:08:03.541Z,2.72
2023-04-10T16:10:30.627Z,2.53
2023-04-10T16:13:02.840Z,2.13
2023-04-10T16:15:29.372Z,2.40
2023-04-10T16:17:56.513Z,2.53
2023-04-10T16:20:22.926Z,2.50
2023-04-10T16:22:49.327Z,2.42
2023-04-10T16:25:16.043Z,2.25
2023-04-10T16:27:42.698Z,2.33
2023-04-10T16:30:09.350Z,2.03
2023-04-10T16:32:35.799Z,2.10
2023-04-10T16:35:02.265Z,2.20
2023-04-10T16:37:28.665Z,2.22
2023-04-10T16:39:56.091Z,2.08
2023-04-10T16:42:22.415Z,2.33
2023-04-10T16:44:48.765Z,2.55
2023-04-10T16:47:15.283Z,2.53
2023-04-10T16:49:45.582Z,2.30
2023-04-10T16:52:12.452Z,2.72
2023-04-10T16:54:39.415Z,2.40
2023-04-10T16:57:05.964Z,2.33
2023-04-10T16:59:32.907Z,2.40
2023-04-10T17:01:59.687Z,2.42
2023-04-10T17:04:26.365Z,2.22
2023-04-10T17:06:52.804Z,2.83
2023-04-10T17:09:20.208Z,2.55
2023-04-10T17:11:46.854Z,3.35
2023-04-10T17:14:13.479Z,2.50
2023-04-10T17:16:40.012Z,2.92
2023-04-10T17:19:06.423Z,2.47
2023-04-10T17:21:32.758Z,2.50
2023-04-10T17:23:59.119Z,2.78
2023-04-10T17:26:25.482Z,2.55
2023-04-10T17:28:52.264Z,2.75
2023-04-10T17:31:19.336Z,2.00
2023-04-10T17:33:45.891Z,1.90
2023-04-10T17:36:12.848Z,2.45
2023-04-10T17:38:39.527Z,2.20
2023-04-10T17:41:06.273Z,2.28
2023-04-10T17:43:33.173Z,1.63
2023-04-10T17:45:59.882Z,2.20
2023-04-10T17:48:26.466Z,1.88
2023-04-10T17:50:52.973Z,1.83
2023-04-10T17:53:19.531Z,1.77
2023-04-10T17:55:46.047Z,1.55
2023-04-10T17:58:12.581Z,1.50
2023-04-10T18:00:43.050Z,1.48
2023-04-10T18:03:09.772Z,1.30
2023-04-10T18:05:38.090Z,1.73
2023-04-10T18:08:04.551Z,1.45
2023-04-10T18:10:31.081Z,1.63
2023-04-10T18:12:58.583Z,1.80
2023-04-10T18:15:25.622Z,2.00
2023-04-10T18:17:52.179Z,1.70
2023-04-10T18:20:19.055Z,1.88
2023-04-10T18:22:47.409Z,1.80
2023-04-10T18:25:17.019Z,2.00
2023-04-10T18:27:51.529Z,1.70
2023-04-10T18:30:30.328Z,1.75
2023-04-10T18:32:56.761Z,1.58
2023-04-10T18:35:23.190Z,1.85
2023-04-10T18:37:49.494Z,2.03
2023-04-10T18:40:16.976Z,1.42
2023-04-10T18:42:43.577Z,1.80
2023-04-10T18:45:10.230Z,1.50
2023-04-10T18:47:36.569Z,2.05
2023-04-10T18:50:02.965Z,2.00
2023-04-10T18:52:29.276Z,1.80
2023-04-10T18:54:56.135Z,1.42
2023-04-10T18:57:22.544Z,1.52
2023-04-10T18:59:48.864Z,1.50
2023-04-10T19:02:15.458Z,1.55
2023-04-10T19:04:42.201Z,1.35
2023-04-10T19:07:08.686Z,1.77
2023-04-10T19:09:35.535Z,2.42
2023-04-10T19:12:02.348Z,2.05
2023-04-10T19:14:28.718Z,1.80
2023-04-10T19:16:55.249Z,1.67
2023-04-10T19:19:21.586Z,1.90
2023-04-10T19:21:47.979Z,2.20
2023-04-10T19:24:14.414Z,1.92
2023-04-10T19:26:40.899Z,1.80
2023-04-10T19:29:08.858Z,1.55
2023-04-10T19:31:35.342Z,1.60
2023-04-10T19:34:04.521Z,1.67
2023-04-10T19:36:31.352Z,1.77
2023-04-10T19:38:57.944Z,1.90
2023-04-10T19:41:24.593Z,2.30
2023-04-10T19:43:52.798Z,1.92
2023-04-10T19:46:20.080Z,1.75
2023-04-10T19:48:46.950Z,1.80
2023-04-10T19:51:13.555Z,1.70
2023-04-10T19:53:39.932Z,2.08
2023-04-10T19:56:06.522Z,2.15
2023-04-10T19:58:40.617Z,2.10
2023-04-10T20:01:08.964Z,1.58
2023-04-10T20:03:36.720Z,1.85
2023-04-10T20:06:03.930Z,2.40
2023-04-10T20:08:30.558Z,2.03
2023-04-10T20:10:58.427Z,2.33
2023-04-10T20:13:24.932Z,2.50
2023-04-10T20:15:51.365Z,2.25
2023-04-10T20:18:17.925Z,2.10
2023-04-10T20:20:44.512Z,2.78
2023-04-10T20:23:11.496Z,2.00
2023-04-10T20:25:38.107Z,2.40
2023-04-10T20:28:04.514Z,2.22
2023-04-10T20:30:31.247Z,2.53
2023-04-10T20:32:57.640Z,2.22
2023-04-10T20:35:25.096Z,2.40
2023-04-10T20:37:51.462Z,2.92
2023-04-10T20:40:17.906Z,2.42
2023-04-10T20:42:44.246Z,2.47
2023-04-10T20:45:10.994Z,2.92
2023-04-10T20:47:37.494Z,2.10
2023-04-10T20:50:04.071Z,2.78
2023-04-10T20:52:30.684Z,3.50
2023-04-10T20:54:57.170Z,2.20
2023-04-10T20:57:23.886Z,2.70
2023-04-10T20:59:50.531Z,3.20
2023-04-10T21:02:18.128Z,3.42
2023-04-10T21:04:44.576Z,2.55
2023-04-10T21:07:10.970Z,3.17
2023-04-10T21:09:37.374Z,3.60
2023-04-10T21:12:04.066Z,3.55
2023-04-10T21:14:30.518Z,3.33
2023-04-10T21:16:56.874Z,5.40
2023-04-10T21:19:23.328Z,5.05
2023-04-10T21:21:49.785Z,2.55
2023-04-10T21:24:16.089Z,5.10
2023-04-10T21:26:42.491Z,3.30
2023-04-10T21:29:08.996Z,2.05
2023-04-10T21:31:35.429Z,2.10
2023-04-10T21:34:01.858Z,2.70
2023-04-10T21:36:28.189Z,2.30
2023-04-10T21:38:54.718Z,2.00
2023-04-10T21:41:21.260Z,1.25
2023-04-10T21:43:47.570Z,1.10
2023-04-10T21:46:14.020Z,1.58
2023-04-10T21:48:41.502Z,1.38
2023-04-10T21:51:07.859Z,2.03
2023-04-10T21:53:34.167Z,1.17
2023-04-10T21:56:00.525Z,1.45
2023-04-10T21:58:26.866Z,1.98
2023-04-10T22:00:54.329Z,1.10
2023-04-10T22:03:21.196Z,1.58
2023-04-10T22:05:48.882Z,1.73
2023-04-10T22:08:15.975Z,1.42
2023-04-10T22:10:45.352Z,1.80
2023-04-10T22:13:16.924Z,1.75
2023-04-10T22:15:49.975Z,2.00
2023-04-10T22:18:16.928Z,2.20
2023-04-10T22:20:43.270Z,1.85
2023-04-10T22:23:09.612Z,2.00
2023-04-10T22:25:38.239Z,2.67
2023-04-10T22:28:05.284Z,2.67
2023-04-10T22:30:31.598Z,2.38
2023-04-10T22:32:58.033Z,3.42
2023-04-10T22:35:24.552Z,2.45
2023-04-10T22:37:50.933Z,2.85
2023-04-10T22:40:17.322Z,2.15
2023-04-10T22:42:44.341Z,2.00
2023-04-10T22:45:11.068Z,2.42
2023-04-10T22:47:37.370Z,2.03
2023-04-10T22:50:03.883Z,1.80
2023-04-10T22:52:30.346Z,1.75
2023-04-10T22:54:57.254Z,1.40
2023-04-10T22:57:23.622Z,1.50
2023-04-10T22:59:50.235Z,1.33
2023-04-10T23:02:16.782Z,3.15
2023-04-10T23:04:43.261Z,1.15
2023-04-10T23:07:09.733Z,1.23
2023-04-10T23:09:36.142Z,1.65
2023-04-10T23:12:02.476Z,2.10
2023-04-10T23:14:28.853Z,1.48
2023-04-10T23:16:55.246Z,1.70
2023-04-10T23:19:21.562Z,1.73
2023-04-10T23:21:49.171Z,2.25
2023-04-10T23:24:15.838Z,2.22
2023-04-10T23:26:42.210Z,2.40
2023-04-10T23:29:08.603Z,2.55
2023-04-10T23:31:34.925Z,2.28
2023-04-10T23:34:01.247Z,2.80
2023-04-10T23:36:27.675Z,2.85
2023-04-10T23:38:54.304Z,3.67
2023-04-10T23:41:21.518Z,2.35
2023-04-10T23:43:47.885Z,2.28
2023-04-10T23:46:14.354Z,3.00
2023-04-10T23:48:40.705Z,2.65
2023-04-10T23:51:07.865Z,2.30
2023-04-10T23:53:34.548Z,2.50
2023-04-10T23:56:01.031Z,2.20
2023-04-10T23:58:27.397Z,3.17
